KSGF/SGF METAR and TAF weather

Enter ICAO airport designator
Station Type Date Time Source
KSGF METAR 2021/04/18 02:52 UTC NOAA

KSGF 180252Z 27006KT 10SM SCT038 OVC049 08/04 A3007 RMK AO2 SLP186 T00830044 53015


Station Type Date Time Source
KSGF Decoded METAR 2021/04/18 02:52 UTC NOAA

SPRINGFIELD-BRANSON NATIONAL, MO, United States (KSGF) 37-14N 93-23W 389M
Apr 17, 2021 - 10:52 PM EDT / 2021.04.18 0252 UTC
Wind: from the W (270 degrees) at 7 MPH (6 KT):0
Visibility: 10 mile(s):0
Sky conditions: overcast
Temperature: 46.9 F (8.3 C)
Dew Point: 39.9 F (4.4 C)
Relative Humidity: 76%
Pressure (altimeter): 30.07 in. Hg (1018 hPa)
Pressure tendency: 0.04 inches (1.5 hPa) higher than three hours ago
ob: KSGF 180252Z 27006KT 10SM SCT038 OVC049 08/04 A3007 RMK AO2 SLP186 T00830044 53015
cycle: 3

Station Type Date Time Source
KSGF TAF 2021/04/17 20:28 UTC NOAA

TAF
AMD KSGF 172026Z 1720/1818 31008KT P6SM BKN035
FM180900 29005KT P6SM BKN021 PROB30 1814/1815 4SM -SHRA BR OVC015
FM181500 31007KT P6SM BKN035 PROB30 1815/1818 4SM -SHRA BR OVC025

Example: see airport list